Time;durP1;ratioP1;P1;durP2;ratioP2;P2;SDS_P1;SDS_P2;PMS_P1;PMS_P2;Temp;Humidity;BMP_temperature;BMP_pressure;BME280_temperature;BME280_humidity;BME280_pressure;Samples;Min_cycle;Max_cycle;Signal;HPM_P1;HPM_P2
2021/06/05 00:00:54;;;;;;;1.67;1.58;;;24.10;40.40;;;;;;5008304;28;20564;-50
2021/06/05 00:03:20;;;;;;;2.00;1.80;;;24.20;40.40;;;;;;5009267;28;20207;-53
2021/06/05 00:05:46;;;;;;;1.98;1.50;;;24.20;40.50;;;;;;5009850;28;20204;-51
2021/06/05 00:08:12;;;;;;;1.63;1.52;;;24.20;40.40;;;;;;5007796;28;20660;-51
2021/06/05 00:10:38;;;;;;;1.80;1.70;;;24.20;40.40;;;;;;5008931;28;20199;-50
2021/06/05 00:13:04;;;;;;;1.90;1.77;;;24.20;40.30;;;;;;5008607;28;20210;-46
2021/06/05 00:15:30;;;;;;;1.70;1.60;;;24.20;40.40;;;;;;5009689;28;20207;-52
2021/06/05 00:17:56;;;;;;;1.80;1.70;;;24.20;40.40;;;;;;5008074;28;20273;-48
2021/06/05 00:20:22;;;;;;;1.70;1.60;;;24.10;40.40;;;;;;5008693;28;20575;-51
2021/06/05 00:22:47;;;;;;;1.60;1.50;;;24.20;40.30;;;;;;5008071;28;20204;-48
2021/06/05 00:25:13;;;;;;;1.65;1.55;;;24.20;40.40;;;;;;5009309;28;20226;-53
2021/06/05 00:27:39;;;;;;;1.88;1.77;;;24.20;40.30;;;;;;5008377;28;20235;-51
2021/06/05 00:30:05;;;;;;;1.80;1.70;;;24.20;40.30;;;;;;5009148;28;20261;-53
2021/06/05 00:32:31;;;;;;;1.90;1.80;;;24.20;40.30;;;;;;5008647;28;20248;-52
2021/06/05 00:34:57;;;;;;;1.90;1.80;;;24.20;40.20;;;;;;5010838;28;20203;-53
2021/06/05 00:37:23;;;;;;;1.70;1.60;;;24.20;40.30;;;;;;5012115;28;20651;-48
2021/06/05 00:39:49;;;;;;;1.63;1.52;;;24.10;40.20;;;;;;5012479;28;20230;-49
2021/06/05 00:42:15;;;;;;;1.65;1.55;;;24.20;40.30;;;;;;5011972;28;20222;-48
2021/06/05 00:44:41;;;;;;;2.10;1.90;;;24.10;40.10;;;;;;5012815;28;20214;-52
2021/06/05 00:47:07;;;;;;;1.70;1.60;;;24.20;40.20;;;;;;5011736;28;20230;-51
2021/06/05 00:49:33;;;;;;;1.77;1.67;;;24.10;40.20;;;;;;5011484;28;20211;-53
2021/06/05 00:52:01;;;;;;;2.03;1.92;;;24.10;40.20;;;;;;5010140;28;20202;-52
2021/06/05 00:54:27;;;;;;;2.00;1.80;;;24.10;40.30;;;;;;5011395;28;20203;-52
2021/06/05 00:56:53;;;;;;;1.88;1.77;;;24.10;40.20;;;;;;5011182;28;20245;-50
2021/06/05 00:59:19;;;;;;;1.70;1.60;;;24.10;40.20;;;;;;5009929;28;20211;-52
2021/06/05 01:01:45;;;;;;;1.70;1.60;;;24.10;40.20;;;;;;5011715;28;20678;-53
2021/06/05 01:04:11;;;;;;;1.70;1.58;;;24.10;40.20;;;;;;5007093;28;20210;-51
2021/06/05 01:06:37;;;;;;;1.98;1.55;;;24.10;40.10;;;;;;5011490;28;20321;-52
2021/06/05 01:09:03;;;;;;;1.60;1.50;;;24.10;40.20;;;;;;5010667;28;20305;-52
2021/06/05 01:11:29;;;;;;;1.63;1.52;;;24.10;40.10;;;;;;5012303;28;20199;-54
2021/06/05 01:13:55;;;;;;;1.55;1.45;;;24.10;40.10;;;;;;5010617;28;20273;-52
2021/06/05 01:16:21;;;;;;;1.55;1.45;;;24.10;40.10;;;;;;5012291;28;20235;-51
2021/06/05 01:18:47;;;;;;;1.70;1.60;;;24.10;40.20;;;;;;5011280;28;20233;-52
2021/06/05 01:21:13;;;;;;;2.05;1.95;;;24.10;40.10;;;;;;5010593;28;20207;-53
2021/06/05 01:23:39;;;;;;;1.70;1.40;;;24.10;40.10;;;;;;5011085;28;20203;-50
2021/06/05 01:26:05;;;;;;;2.03;1.80;;;24.10;40.20;;;;;;5011174;28;20707;-51
2021/06/05 01:28:31;;;;;;;1.85;1.70;;;24.10;40.10;;;;;;5011275;28;20269;-53
2021/06/05 01:30:57;;;;;;;1.83;1.67;;;24.10;40.10;;;;;;5011639;28;20199;-51
2021/06/05 01:33:23;;;;;;;1.80;1.70;;;24.10;40.10;;;;;;5008344;28;20226;-51
2021/06/05 01:35:49;;;;;;;2.22;1.77;;;24.10;40.10;;;;;;5011486;28;20226;-50
2021/06/05 01:38:15;;;;;;;1.60;1.50;;;24.10;40.20;;;;;;5010570;28;20605;-52
2021/06/05 01:40:41;;;;;;;1.77;1.67;;;24.10;40.10;;;;;;5011283;28;20271;-51
2021/06/05 01:43:07;;;;;;;1.75;1.65;;;24.10;40.20;;;;;;5011085;28;20548;-52
2021/06/05 01:45:33;;;;;;;1.70;1.60;;;24.10;40.10;;;;;;5002047;28;20230;-50
2021/06/05 01:47:59;;;;;;;2.00;1.80;;;24.10;40.00;;;;;;5009699;28;20238;-52
2021/06/05 01:50:25;;;;;;;1.60;1.50;;;24.10;40.10;;;;;;5010266;28;20577;-50
2021/06/05 01:52:50;;;;;;;2.00;1.90;;;24.10;40.10;;;;;;5002078;28;20207;-50
2021/06/05 01:55:17;;;;;;;1.85;1.65;;;24.10;40.00;;;;;;5010956;28;20209;-52
2021/06/05 01:57:43;;;;;;;1.75;1.65;;;24.10;40.00;;;;;;5010563;28;20740;-51
2021/06/05 02:00:09;;;;;;;1.70;1.60;;;24.10;40.00;;;;;;5010404;28;20214;-52
2021/06/05 02:02:35;;;;;;;1.77;1.63;;;24.10;40.00;;;;;;5010207;28;20203;-52
2021/06/05 02:05:01;;;;;;;1.70;1.60;;;24.10;40.10;;;;;;5010890;28;20555;-53
2021/06/05 02:07:27;;;;;;;1.52;1.42;;;24.10;40.00;;;;;;5010541;28;20231;-54
2021/06/05 02:09:53;;;;;;;1.50;1.40;;;24.10;40.10;;;;;;5009629;28;20279;-53
2021/06/05 02:12:19;;;;;;;2.30;1.67;;;24.10;40.10;;;;;;5010447;28;20203;-51
2021/06/05 02:14:45;;;;;;;1.67;1.58;;;24.10;40.00;;;;;;5011268;28;20205;-48
2021/06/05 02:17:11;;;;;;;1.63;1.50;;;24.10;40.10;;;;;;5009985;28;20261;-51
2021/06/05 02:19:37;;;;;;;1.85;1.75;;;24.10;40.10;;;;;;5008353;28;20207;-49
2021/06/05 02:22:03;;;;;;;1.60;1.50;;;24.10;40.00;;;;;;5010102;28;20346;-54
2021/06/05 02:24:29;;;;;;;1.80;1.70;;;24.10;40.00;;;;;;5009927;28;20622;-50
2021/06/05 02:26:55;;;;;;;1.85;1.75;;;24.10;40.00;;;;;;5010128;28;20329;-52
2021/06/05 02:29:21;;;;;;;2.30;1.80;;;24.10;40.10;;;;;;5009574;28;20823;-53
2021/06/05 02:31:47;;;;;;;3.08;1.90;;;24.10;40.10;;;;;;5010942;28;20202;-52
2021/06/05 02:34:13;;;;;;;1.80;1.70;;;24.10;40.00;;;;;;5009311;28;20203;-50
2021/06/05 02:36:39;;;;;;;1.63;1.52;;;24.10;39.90;;;;;;5011165;28;20226;-51
2021/06/05 02:39:05;;;;;;;1.70;1.60;;;24.10;39.90;;;;;;5010898;28;20279;-51
2021/06/05 02:41:31;;;;;;;1.65;1.55;;;24.10;39.90;;;;;;5008949;28;20664;-51
2021/06/05 02:43:57;;;;;;;2.38;1.60;;;24.10;40.10;;;;;;5010600;28;20203;-50
2021/06/05 02:46:23;;;;;;;1.90;1.75;;;24.10;40.40;;;;;;5009675;28;20835;-53
2021/06/05 02:48:49;;;;;;;1.65;1.55;;;24.20;40.50;;;;;;5010535;28;20289;-50
2021/06/05 02:51:15;;;;;;;1.70;1.60;;;24.10;40.60;;;;;;5009571;28;20203;-53
2021/06/05 02:53:41;;;;;;;2.10;1.83;;;24.10;40.70;;;;;;5009675;28;20941;-53
2021/06/05 02:56:07;;;;;;;1.60;1.40;;;24.10;40.50;;;;;;5010384;28;20223;-50
2021/06/05 02:58:33;;;;;;;1.95;1.85;;;24.10;40.60;;;;;;5007006;28;20290;-51
2021/06/05 03:00:59;;;;;;;1.83;1.60;;;24.10;40.50;;;;;;5007964;28;20199;-51
2021/06/05 03:03:25;;;;;;;1.70;1.60;;;24.10;40.60;;;;;;5009944;28;20239;-52
2021/06/05 03:05:51;;;;;;;1.70;1.60;;;24.10;40.50;;;;;;5009686;28;20229;-51
2021/06/05 03:08:17;;;;;;;1.88;1.65;;;24.10;40.50;;;;;;5010007;28;20302;-53
2021/06/05 03:10:43;;;;;;;1.65;1.55;;;24.10;40.50;;;;;;5009007;28;20210;-53
2021/06/05 03:13:09;;;;;;;1.60;1.50;;;24.10;40.50;;;;;;5009714;28;20293;-53
2021/06/05 03:15:35;;;;;;;1.85;1.70;;;24.10;40.40;;;;;;5008361;28;20226;-53
2021/06/05 03:18:01;;;;;;;1.70;1.60;;;24.10;40.30;;;;;;5009623;28;20727;-52
2021/06/05 03:20:27;;;;;;;1.92;1.52;;;24.10;40.40;;;;;;5008810;28;20215;-46
2021/06/05 03:22:57;;;;;;;1.70;1.60;;;24.10;40.30;;;;;;5010534;28;20257;-47
2021/06/05 03:25:23;;;;;;;1.70;1.60;;;24.10;40.30;;;;;;5008241;28;20715;-48
2021/06/05 03:27:49;;;;;;;1.88;1.65;;;24.10;40.30;;;;;;5009601;28;20274;-52
2021/06/05 03:30:15;;;;;;;1.83;1.73;;;24.10;40.30;;;;;;5008544;28;20242;-50
2021/06/05 03:32:41;;;;;;;2.30;1.73;;;24.10;40.40;;;;;;5009864;28;20223;-49
2021/06/05 03:35:07;;;;;;;2.15;1.60;;;24.10;40.40;;;;;;5009389;28;20208;-50
2021/06/05 03:37:33;;;;;;;1.95;1.63;;;24.10;40.30;;;;;;5010030;28;20303;-53
2021/06/05 03:39:59;;;;;;;1.60;1.50;;;24.10;40.30;;;;;;5008287;28;20802;-50
2021/06/05 03:42:25;;;;;;;1.67;1.55;;;24.10;40.00;;;;;;5010405;28;20204;-52
2021/06/05 03:44:51;;;;;;;1.92;1.73;;;24.10;40.20;;;;;;5009781;28;20279;-52
2021/06/05 03:47:19;;;;;;;2.35;1.70;;;24.10;40.30;;;;;;5002826;28;20243;-52
2021/06/05 03:49:45;;;;;;;1.88;1.70;;;24.10;40.20;;;;;;5008507;28;20207;-50
2021/06/05 03:52:11;;;;;;;2.70;1.63;;;24.10;40.30;;;;;;5008979;28;20579;-46
2021/06/05 03:54:37;;;;;;;1.50;1.40;;;24.10;40.20;;;;;;5008087;28;20199;-53
2021/06/05 03:57:03;;;;;;;1.83;1.70;;;24.10;40.20;;;;;;5010046;28;20254;-52
2021/06/05 03:59:29;;;;;;;1.70;1.60;;;24.10;40.40;;;;;;5008197;28;20203;-49
2021/06/05 04:01:57;;;;;;;1.80;1.70;;;24.10;40.40;;;;;;5008390;28;20265;-52
2021/06/05 04:04:23;;;;;;;1.73;1.50;;;24.10;40.30;;;;;;5007945;28;20199;-51
2021/06/05 04:06:49;;;;;;;2.15;1.30;;;24.10;40.20;;;;;;5009604;28;20668;-48
2021/06/05 04:09:15;;;;;;;1.67;1.58;;;24.10;40.20;;;;;;5009637;28;20581;-51
2021/06/05 04:11:41;;;;;;;1.98;1.50;;;24.10;40.30;;;;;;5014267;28;20222;-51
2021/06/05 04:14:09;;;;;;;1.73;1.63;;;24.10;40.20;;;;;;5011891;28;20203;-51
2021/06/05 04:16:35;;;;;;;1.48;1.38;;;24.10;40.20;;;;;;5013583;28;20227;-49
2021/06/05 04:19:01;;;;;;;1.45;1.35;;;24.10;40.20;;;;;;5012327;28;20278;-53
2021/06/05 04:21:27;;;;;;;2.55;1.40;;;24.10;40.10;;;;;;5013573;28;20210;-48
2021/06/05 04:23:53;;;;;;;1.52;1.42;;;24.10;40.20;;;;;;5009279;28;20204;-52
2021/06/05 04:26:19;;;;;;;1.75;1.63;;;24.10;40.90;;;;;;5013359;28;20222;-54
2021/06/05 04:28:45;;;;;;;1.67;1.58;;;24.10;40.20;;;;;;5012366;28;20586;-51
2021/06/05 04:31:12;;;;;;;1.70;1.60;;;24.10;40.10;;;;;;5013002;28;20207;-54
2021/06/05 04:33:38;;;;;;;1.67;1.58;;;24.10;40.10;;;;;;5011758;28;20237;-52
2021/06/05 04:36:05;;;;;;;1.40;1.27;;;24.10;40.10;;;;;;5012390;28;20250;-52
2021/06/05 04:38:31;;;;;;;2.40;2.08;;;24.10;40.20;;;;;;5007802;28;20207;-51
2021/06/05 04:40:57;;;;;;;1.75;1.50;;;24.10;40.20;;;;;;5012390;28;20659;-50
2021/06/05 04:43:23;;;;;;;2.28;1.70;;;24.10;40.00;;;;;;5009545;28;20204;-53
2021/06/05 04:45:49;;;;;;;1.63;1.52;;;24.10;40.20;;;;;;5005775;28;20617;-53
2021/06/05 04:48:15;;;;;;;1.40;1.30;;;24.10;40.20;;;;;;5013032;28;20230;-50
2021/06/05 04:50:41;;;;;;;1.98;1.50;;;24.10;40.20;;;;;;5011902;28;20199;-51
2021/06/05 04:53:07;;;;;;;1.73;1.55;;;24.10;40.30;;;;;;5012867;28;20207;-53
2021/06/05 04:55:33;;;;;;;1.88;1.63;;;24.10;40.20;;;;;;5011307;28;20322;-50
2021/06/05 04:57:59;;;;;;;1.42;1.33;;;24.10;40.10;;;;;;5009507;28;20204;-51
2021/06/05 05:00:25;;;;;;;1.80;1.70;;;24.10;40.20;;;;;;5009927;28;20617;-52
2021/06/05 05:02:51;;;;;;;2.67;1.50;;;24.10;40.20;;;;;;5011905;28;20206;-50
2021/06/05 05:05:17;;;;;;;2.03;1.92;;;24.10;40.10;;;;;;5011609;28;20383;-49
2021/06/05 05:07:43;;;;;;;1.55;1.45;;;24.10;40.10;;;;;;5008070;28;20223;-51
2021/06/05 05:10:09;;;;;;;1.80;1.70;;;24.10;39.80;;;;;;5011263;28;20562;-53
2021/06/05 05:12:35;;;;;;;1.40;1.30;;;24.10;40.30;;;;;;5009354;28;20239;-53
2021/06/05 05:15:01;;;;;;;1.70;1.60;;;24.10;40.50;;;;;;5011049;28;20562;-50
2021/06/05 05:17:27;;;;;;;1.88;1.52;;;24.10;40.40;;;;;;5002075;28;20201;-53
2021/06/05 05:19:53;;;;;;;2.80;1.42;;;24.20;41.10;;;;;;5007014;28;20288;-55
2021/06/05 05:22:19;;;;;;;3.45;1.60;;;24.20;41.80;;;;;;5019993;28;20202;-52
2021/06/05 05:24:45;;;;;;;2.67;1.58;;;24.20;41.60;;;;;;5002995;28;20287;-57
2021/06/05 05:27:11;;;;;;;2.28;1.33;;;24.20;41.40;;;;;;5011747;28;21459;-57
2021/06/05 05:29:37;;;;;;;5.28;2.17;;;24.20;41.30;;;;;;5011338;28;20195;-56
2021/06/05 05:32:04;;;;;;;6.57;2.63;;;24.20;41.20;;;;;;5009819;28;20207;-54
2021/06/05 05:34:30;;;;;;;6.10;2.92;;;24.20;43.10;;;;;;5010654;28;20290;-43
2021/06/05 05:36:56;;;;;;;5.88;2.20;;;24.30;43.60;;;;;;5008447;28;20592;-40
2021/06/05 05:39:22;;;;;;;9.75;2.42;;;24.30;44.00;;;;;;5007915;28;20200;-55
2021/06/05 05:41:49;;;;;;;6.20;2.65;;;24.30;44.90;;;;;;5009274;28;20230;-53
2021/06/05 05:44:15;;;;;;;5.95;2.88;;;24.30;45.70;;;;;;5009852;28;20269;-49
2021/06/05 05:46:41;;;;;;;5.07;2.40;;;24.30;45.60;;;;;;5021117;28;20751;-56
2021/06/05 05:49:07;;;;;;;8.30;2.70;;;24.30;45.70;;;;;;5005965;28;20211;-50
2021/06/05 05:51:33;;;;;;;6.50;2.50;;;24.20;45.90;;;;;;5006657;28;20234;-53
2021/06/05 05:53:59;;;;;;;3.70;2.40;;;24.20;45.30;;;;;;5011059;28;20198;-54
2021/06/05 05:56:25;;;;;;;6.60;2.58;;;24.20;45.50;;;;;;5010515;28;20954;-57
2021/06/05 05:58:51;;;;;;;8.40;2.40;;;24.20;44.90;;;;;;5010624;28;20210;-57
2021/06/05 06:01:19;;;;;;;4.72;2.67;;;24.20;44.40;;;;;;5009244;28;20204;-55
2021/06/05 06:03:45;;;;;;;2.00;1.80;;;23.20;43.30;;;;;;5005867;28;20202;-53
2021/06/05 06:06:11;;;;;;;5.35;2.28;;;21.80;45.70;;;;;;5008758;28;20223;-55
2021/06/05 06:08:37;;;;;;;2.70;2.00;;;22.60;46.70;;;;;;5003547;28;20714;-57
2021/06/05 06:26:55;;;;;;;3.03;2.00;;;23.90;47.60;;;;;;5526142;22;20505;-51
2021/06/05 06:29:28;;;;;;;4.05;2.20;;;24.00;46.30;;;;;;5018508;28;20600;-44
2021/06/05 06:31:54;;;;;;;2.78;2.05;;;24.00;45.70;;;;;;5026683;28;20203;-57
2021/06/05 06:34:20;;;;;;;2.67;1.88;;;24.00;44.90;;;;;;5031557;28;20225;-54
2021/06/05 06:36:46;;;;;;;2.88;1.67;;;24.10;44.60;;;;;;5013862;28;20231;-52
2021/06/05 06:39:12;;;;;;;2.38;1.70;;;24.10;44.30;;;;;;5020641;28;20202;-58
2021/06/05 06:41:38;;;;;;;2.28;1.50;;;24.20;44.90;;;;;;5017650;28;20199;-58
2021/06/05 06:44:04;;;;;;;1.70;1.60;;;24.20;43.70;;;;;;5016254;28;20203;-58
2021/06/05 06:46:30;;;;;;;2.10;1.70;;;24.20;43.10;;;;;;5011345;28;20233;-57
2021/06/05 06:48:56;;;;;;;2.33;1.70;;;24.20;44.00;;;;;;5010547;28;20631;-58
2021/06/05 06:51:22;;;;;;;1.85;1.50;;;24.20;43.10;;;;;;5012597;28;20234;-58
2021/06/05 06:53:48;;;;;;;2.03;1.67;;;24.20;43.10;;;;;;5010482;28;20235;-56
2021/06/05 06:56:14;;;;;;;2.85;1.67;;;24.20;43.10;;;;;;5011067;28;20755;-57
2021/06/05 06:58:40;;;;;;;2.05;1.60;;;24.30;43.40;;;;;;5010734;28;20203;-56
2021/06/05 07:01:06;;;;;;;6.53;1.50;;;24.30;43.20;;;;;;5008887;28;20211;-58
2021/06/05 07:03:32;;;;;;;1.95;1.50;;;24.30;43.80;;;;;;5007394;28;20293;-50
2021/06/05 07:05:58;;;;;;;1.50;1.40;;;24.30;43.20;;;;;;5009014;28;20227;-49
2021/06/05 07:08:24;;;;;;;3.05;1.63;;;24.20;44.50;;;;;;5011480;28;20231;-50
2021/06/05 07:10:50;;;;;;;4.55;1.48;;;24.20;44.80;;;;;;5012736;28;20206;-49
2021/06/05 07:13:16;;;;;;;3.75;1.90;;;24.20;44.10;;;;;;5005833;28;20254;-54
2021/06/05 07:15:42;;;;;;;3.58;1.42;;;24.30;44.50;;;;;;5007283;28;20223;-56
2021/06/05 07:18:08;;;;;;;1.25;1.10;;;24.30;44.20;;;;;;5010172;28;20203;-52
2021/06/05 07:20:34;;;;;;;2.17;1.50;;;24.30;43.60;;;;;;5010757;28;20195;-53
2021/06/05 07:23:00;;;;;;;1.85;1.40;;;24.20;43.30;;;;;;5010781;28;20211;-51
2021/06/05 07:25:27;;;;;;;2.35;1.63;;;24.30;44.20;;;;;;5009240;28;20242;-55
2021/06/05 07:27:53;;;;;;;2.92;1.52;;;24.30;44.70;;;;;;5007061;28;20230;-50
2021/06/05 07:30:19;;;;;;;2.72;1.55;;;24.30;45.00;;;;;;5008753;28;20257;-46
2021/06/05 07:32:45;;;;;;;2.10;1.40;;;24.30;43.90;;;;;;5008055;28;20207;-52
2021/06/05 07:35:11;;;;;;;2.35;1.45;;;24.30;43.20;;;;;;5006987;28;20227;-53
2021/06/05 07:37:37;;;;;;;4.60;1.95;;;24.30;44.20;;;;;;5010729;28;20658;-50
2021/06/05 07:40:07;;;;;;;2.33;1.50;;;24.40;44.70;;;;;;5012187;28;20199;-56
2021/06/05 07:42:33;;;;;;;1.85;1.30;;;24.40;44.10;;;;;;5014324;28;20195;-53
2021/06/05 07:44:59;;;;;;;1.83;1.55;;;24.20;45.10;;;;;;5024996;28;20280;-51
2021/06/05 07:47:25;;;;;;;2.03;1.30;;;24.30;44.90;;;;;;4985247;28;20230;-48
2021/06/05 07:49:52;;;;;;;3.38;1.40;;;24.30;44.90;;;;;;5013820;28;20204;-57
2021/06/05 07:52:23;;;;;;;1.65;1.15;;;24.40;44.60;;;;;;4995413;28;20295;-51
2021/06/05 07:54:49;;;;;;;2.88;1.25;;;24.40;44.10;;;;;;4992580;28;20239;-55
2021/06/05 07:57:15;;;;;;;2.17;1.48;;;24.40;43.90;;;;;;4996287;28;20262;-51
2021/06/05 07:59:41;;;;;;;2.50;1.70;;;24.50;46.10;;;;;;4996385;28;20775;-47
2021/06/05 08:02:07;;;;;;;3.03;1.50;;;24.50;45.60;;;;;;4993312;28;20204;-48
2021/06/05 08:04:33;;;;;;;3.10;1.50;;;24.50;44.40;;;;;;4995315;28;20245;-53
2021/06/05 08:06:59;;;;;;;5.07;1.60;;;24.40;44.10;;;;;;4994372;28;20208;-53
2021/06/05 08:09:25;;;;;;;3.35;1.67;;;24.40;45.50;;;;;;4994409;28;20207;-49
2021/06/05 08:11:51;;;;;;;3.20;1.50;;;24.50;45.20;;;;;;4994195;28;20222;-52
2021/06/05 08:14:17;;;;;;;5.18;1.42;;;24.50;44.30;;;;;;4992303;28;20212;-54
2021/06/05 08:16:43;;;;;;;1.73;1.50;;;24.50;44.20;;;;;;4991766;28;20200;-57
2021/06/05 08:19:09;;;;;;;2.28;1.40;;;24.40;44.80;;;;;;4984031;28;20208;-52
2021/06/05 08:21:35;;;;;;;4.47;1.48;;;24.50;45.60;;;;;;4992695;28;20264;-55
2021/06/05 08:24:01;;;;;;;1.75;1.40;;;24.50;45.70;;;;;;4990166;28;20204;-58
2021/06/05 08:26:27;;;;;;;2.58;1.65;;;24.60;45.20;;;;;;4993458;28;20255;-58
2021/06/05 08:28:53;;;;;;;3.83;1.55;;;24.50;45.30;;;;;;4996810;28;20577;-58
2021/06/05 08:31:19;;;;;;;3.05;1.40;;;24.60;45.30;;;;;;4993869;28;20215;-57
2021/06/05 08:33:45;;;;;;;2.83;1.60;;;24.60;45.40;;;;;;4994311;28;20275;-54
2021/06/05 08:36:11;;;;;;;2.05;1.50;;;24.60;45.60;;;;;;4990350;28;20224;-58
2021/06/05 08:38:37;;;;;;;3.78;1.60;;;24.60;45.60;;;;;;4993661;28;20250;-58
2021/06/05 08:41:03;;;;;;;2.58;1.60;;;24.70;45.80;;;;;;5008630;28;20219;-57
2021/06/05 08:43:29;;;;;;;3.63;1.77;;;24.70;47.00;;;;;;4989295;28;20701;-57
2021/06/05 08:45:55;;;;;;;3.90;1.70;;;24.60;46.70;;;;;;4992741;28;20224;-57
2021/06/05 08:48:21;;;;;;;5.07;1.70;;;24.60;47.00;;;;;;4984084;28;20232;-57
2021/06/05 08:50:47;;;;;;;1.58;1.30;;;24.70;46.70;;;;;;4985131;28;20540;-57
2021/06/05 08:53:13;;;;;;;3.85;1.63;;;24.60;47.50;;;;;;4992484;28;20230;-56
2021/06/05 08:55:39;;;;;;;1.55;1.40;;;24.70;47.90;;;;;;4991588;28;20234;-58
2021/06/05 08:58:05;;;;;;;3.08;1.40;;;24.60;47.90;;;;;;4989882;28;20241;-56
2021/06/05 09:00:31;;;;;;;2.65;1.50;;;24.60;47.00;;;;;;4996147;28;20614;-57
2021/06/05 09:02:57;;;;;;;3.35;1.63;;;24.60;47.50;;;;;;4993679;28;20208;-58
2021/06/05 09:05:23;;;;;;;2.67;1.27;;;24.70;47.80;;;;;;4988688;28;20224;-57
2021/06/05 09:07:49;;;;;;;1.75;1.30;;;24.50;43.40;;;;;;4988890;28;20224;-58
2021/06/05 09:10:15;;;;;;;1.65;1.17;;;24.50;44.20;;;;;;4991895;28;20262;-57
2021/06/05 09:12:41;;;;;;;1.58;1.45;;;24.60;44.70;;;;;;4991350;28;20211;-57
2021/06/05 09:15:07;;;;;;;3.03;1.55;;;24.60;45.20;;;;;;4992226;28;20334;-57
2021/06/05 09:17:33;;;;;;;1.55;1.40;;;24.60;45.20;;;;;;4993423;28;20212;-57
2021/06/05 09:19:59;;;;;;;2.03;1.42;;;24.60;45.90;;;;;;4989954;28;20208;-57
2021/06/05 09:22:25;;;;;;;2.17;1.50;;;24.60;45.10;;;;;;4991238;28;20274;-57
2021/06/05 09:24:52;;;;;;;2.05;1.30;;;24.60;45.00;;;;;;5006341;28;20227;-56
2021/06/05 09:27:18;;;;;;;2.58;1.65;;;24.60;45.30;;;;;;4997848;28;20235;-56
2021/06/05 09:29:44;;;;;;;3.65;1.40;;;24.70;45.40;;;;;;4997109;28;20200;-57
2021/06/05 09:32:10;;;;;;;2.17;1.40;;;24.70;45.60;;;;;;4996548;28;20632;-57
2021/06/05 09:34:36;;;;;;;2.00;1.77;;;24.60;44.50;;;;;;4989432;28;20275;-58
2021/06/05 09:37:02;;;;;;;2.08;1.27;;;24.60;44.90;;;;;;4985294;28;20553;-57
2021/06/05 09:39:28;;;;;;;3.17;1.27;;;24.60;44.60;;;;;;4990403;28;20200;-57
2021/06/05 09:41:54;;;;;;;2.92;1.35;;;24.70;44.80;;;;;;4991965;28;20743;-54
2021/06/05 09:44:20;;;;;;;2.38;1.50;;;24.70;44.60;;;;;;4991625;28;20254;-57
2021/06/05 09:46:46;;;;;;;3.20;1.95;;;24.70;44.60;;;;;;4991052;28;20204;-56
2021/06/05 09:49:12;;;;;;;3.47;1.50;;;24.70;45.10;;;;;;4989096;28;20610;-57
2021/06/05 09:51:38;;;;;;;2.25;1.80;;;24.70;45.00;;;;;;4991411;28;20200;-57
2021/06/05 09:54:04;;;;;;;2.40;1.50;;;24.70;45.00;;;;;;4989105;28;20255;-53
2021/06/05 09:56:30;;;;;;;2.80;1.30;;;24.70;45.00;;;;;;4990203;28;20611;-53
2021/06/05 09:58:56;;;;;;;2.55;1.55;;;24.80;45.20;;;;;;4989742;28;20200;-57
2021/06/05 10:01:22;;;;;;;2.30;1.55;;;24.80;44.50;;;;;;4990640;28;20207;-57
2021/06/05 10:03:48;;;;;;;1.83;1.13;;;24.80;44.90;;;;;;4992954;28;20306;-57
2021/06/05 10:06:14;;;;;;;1.83;1.30;;;24.80;44.80;;;;;;4989530;28;20207;-58
2021/06/05 10:08:40;;;;;;;1.90;1.38;;;24.70;44.70;;;;;;4989320;28;20235;-57
2021/06/05 10:11:06;;;;;;;1.85;1.35;;;24.70;44.60;;;;;;4991834;28;20208;-55
2021/06/05 10:13:32;;;;;;;1.67;1.08;;;24.70;44.50;;;;;;4988080;28;20200;-55
2021/06/05 10:15:58;;;;;;;1.35;1.25;;;24.70;44.40;;;;;;4989480;28;20207;-56
2021/06/05 10:18:24;;;;;;;1.85;1.35;;;24.70;44.30;;;;;;4992133;28;20207;-57
2021/06/05 10:20:51;;;;;;;2.22;1.20;;;24.70;44.40;;;;;;4992665;28;20200;-56
2021/06/05 10:23:17;;;;;;;2.72;1.40;;;24.60;43.40;;;;;;4983614;28;20207;-56
2021/06/05 10:25:43;;;;;;;3.55;1.20;;;24.70;43.60;;;;;;4987488;28;20819;-57
2021/06/05 10:28:09;;;;;;;1.58;1.48;;;24.70;43.50;;;;;;4983993;28;20244;-57
2021/06/05 10:30:35;;;;;;;1.23;1.13;;;24.70;43.50;;;;;;4988936;28;20207;-57
2021/06/05 10:33:01;;;;;;;1.90;1.23;;;24.70;43.50;;;;;;4991769;28;20204;-56
2021/06/05 10:35:27;;;;;;;2.47;1.73;;;24.70;43.50;;;;;;4987594;28;20230;-57
2021/06/05 10:37:53;;;;;;;3.83;1.40;;;24.70;43.60;;;;;;4989369;28;20553;-55
2021/06/05 10:40:19;;;;;;;1.70;1.30;;;24.70;42.80;;;;;;4988060;28;20204;-57
2021/06/05 10:42:45;;;;;;;2.60;1.30;;;24.70;42.80;;;;;;4989052;28;20269;-56
2021/06/05 10:45:11;;;;;;;1.58;1.20;;;24.60;43.10;;;;;;4989713;28;20251;-56
2021/06/05 10:47:37;;;;;;;2.72;1.65;;;24.70;43.50;;;;;;4989795;28;20255;-56
2021/06/05 10:50:03;;;;;;;2.45;1.63;;;24.70;43.50;;;;;;4988365;28;20564;-57
2021/06/05 10:52:30;;;;;;;4.05;1.98;;;24.70;43.50;;;;;;4991171;28;20215;-56
2021/06/05 10:54:56;;;;;;;4.43;3.80;;;24.70;43.60;;;;;;4992742;28;20299;-57
2021/06/05 10:57:22;;;;;;;17.20;9.30;;;24.70;43.50;;;;;;4990095;28;20207;-57
2021/06/05 10:59:48;;;;;;;23.05;14.40;;;24.70;43.50;;;;;;4989438;28;20204;-58
2021/06/05 11:02:14;;;;;;;39.63;28.75;;;24.70;43.50;;;;;;4993379;28;20212;-57
2021/06/05 11:04:40;;;;;;;63.63;44.40;;;24.70;43.50;;;;;;5001203;28;20230;-57
2021/06/05 11:07:06;;;;;;;58.63;41.22;;;24.70;43.50;;;;;;4990455;28;20208;-57
2021/06/05 11:09:32;;;;;;;56.38;39.67;;;24.70;43.50;;;;;;4989788;28;20211;-57
2021/06/05 11:12:00;;;;;;;55.25;39.67;;;24.70;43.60;;;;;;4990462;28;20752;-58
2021/06/05 11:14:25;;;;;;;47.08;32.35;;;24.70;43.90;;;;;;4991910;28;20272;-57
2021/06/05 11:16:51;;;;;;;44.83;32.50;;;24.70;43.50;;;;;;4991153;28;20211;-58
2021/06/05 11:19:17;;;;;;;46.35;34.28;;;24.70;43.50;;;;;;4998849;28;20207;-58
2021/06/05 11:21:43;;;;;;;42.33;34.63;;;24.70;43.60;;;;;;4990572;28;20687;-59
2021/06/05 11:24:09;;;;;;;44.03;32.92;;;24.70;43.50;;;;;;4989218;28;20232;-56
2021/06/05 11:26:35;;;;;;;49.72;36.28;;;24.70;44.10;;;;;;4986984;28;20576;-57
2021/06/05 11:29:01;;;;;;;51.50;35.83;;;24.70;43.50;;;;;;4972597;28;20235;-57
2021/06/05 11:31:27;;;;;;;51.90;35.63;;;24.70;43.60;;;;;;4985903;28;20207;-57
2021/06/05 11:33:53;;;;;;;45.35;30.90;;;24.70;43.50;;;;;;4993838;28;20255;-57
2021/06/05 11:36:19;;;;;;;46.85;32.90;;;24.70;43.40;;;;;;4992008;28;20552;-59
2021/06/05 11:38:45;;;;;;;51.90;34.97;;;24.70;43.50;;;;;;5001179;28;20211;-57
2021/06/05 11:41:12;;;;;;;43.08;29.33;;;24.70;43.60;;;;;;4985102;28;20550;-57
2021/06/05 11:43:37;;;;;;;38.95;27.23;;;24.70;43.00;;;;;;4991115;28;20239;-57
2021/06/05 11:46:04;;;;;;;40.33;28.13;;;24.70;42.70;;;;;;4991143;28;20204;-57
2021/06/05 11:48:30;;;;;;;44.05;29.92;;;24.70;42.80;;;;;;4989261;28;20352;-57
2021/06/05 11:50:56;;;;;;;34.78;27.25;;;24.60;44.00;;;;;;4990194;28;20196;-57
2021/06/05 11:53:22;;;;;;;37.95;26.15;;;24.70;42.70;;;;;;4991139;28;20671;-58
2021/06/05 11:55:48;;;;;;;43.03;27.83;;;24.70;42.80;;;;;;4993723;28;20283;-57
2021/06/05 11:58:14;;;;;;;42.30;27.83;;;24.70;42.80;;;;;;4986085;28;20210;-57
2021/06/05 12:00:41;;;;;;;37.67;25.52;;;24.70;43.30;;;;;;4990163;28;20196;-57
2021/06/05 12:03:08;;;;;;;31.95;22.42;;;24.70;43.50;;;;;;4991658;28;20610;-57
2021/06/05 12:05:35;;;;;;;27.95;20.83;;;24.70;43.20;;;;;;4988723;28;20211;-57
2021/06/05 12:08:01;;;;;;;31.83;19.92;;;24.70;43.10;;;;;;4988741;28;20257;-58
2021/06/05 12:10:27;;;;;;;24.20;16.85;;;24.70;43.20;;;;;;4989490;28;20203;-58
2021/06/05 12:12:53;;;;;;;25.83;17.95;;;24.70;43.20;;;;;;4988698;28;20290;-58
2021/06/05 12:15:20;;;;;;;24.10;15.70;;;24.70;43.00;;;;;;4987703;28;20204;-58
2021/06/05 12:17:46;;;;;;;24.63;15.20;;;24.70;42.80;;;;;;4979153;28;20212;-57
2021/06/05 12:20:12;;;;;;;25.02;14.73;;;24.70;42.80;;;;;;4991117;28;20616;-57
2021/06/05 12:22:38;;;;;;;21.45;13.45;;;24.70;42.80;;;;;;4998812;28;20204;-59
2021/06/05 12:25:04;;;;;;;22.13;13.07;;;24.70;42.70;;;;;;4996986;28;20296;-60
2021/06/05 12:27:30;;;;;;;20.98;13.55;;;24.70;42.80;;;;;;4997327;23;20243;-53
2021/06/05 12:29:56;;;;;;;23.13;12.57;;;24.70;43.30;;;;;;4970555;28;20577;-52
2021/06/05 12:32:22;;;;;;;19.77;12.15;;;24.70;42.90;;;;;;4975702;28;20279;-52
2021/06/05 12:34:48;;;;;;;17.40;11.90;;;24.70;42.80;;;;;;4974399;28;20212;-55
2021/06/05 12:37:14;;;;;;;17.27;11.15;;;24.60;42.80;;;;;;4977488;28;20204;-53
2021/06/05 12:39:41;;;;;;;18.20;10.73;;;24.70;43.10;;;;;;4973545;28;20207;-51
2021/06/05 12:42:07;;;;;;;17.90;9.95;;;24.70;42.80;;;;;;4982428;28;20207;-55
2021/06/05 12:44:33;;;;;;;18.38;10.82;;;24.70;42.80;;;;;;4989595;28;20592;-52
2021/06/05 12:46:59;;;;;;;17.58;10.48;;;24.70;42.70;;;;;;4977912;28;20204;-55
2021/06/05 12:49:25;;;;;;;21.17;11.27;;;24.70;42.80;;;;;;4973723;28;20231;-53
2021/06/05 12:51:51;;;;;;;14.57;9.43;;;24.70;43.00;;;;;;4973022;28;20200;-54